createdAt,value
2019-02-11T00:05:04.468Z,7.20
2019-02-11T00:10:12.685Z,5.50
2019-02-11T00:15:19.276Z,5.73
2019-02-11T00:20:27.616Z,9.02
2019-02-11T00:25:35.817Z,5.47
2019-02-11T00:30:44.093Z,4.85
2019-02-11T00:35:52.821Z,5.25
2019-02-11T00:41:01.040Z,4.36
2019-02-11T00:46:09.150Z,4.76
2019-02-11T00:51:17.321Z,4.42
2019-02-11T00:56:25.493Z,4.34
2019-02-11T01:01:35.290Z,4.91
2019-02-11T01:06:43.526Z,4.33
2019-02-11T01:11:51.661Z,4.73
2019-02-11T01:16:59.797Z,4.23
2019-02-11T01:22:07.991Z,4.06
2019-02-11T01:27:16.096Z,3.91
2019-02-11T01:32:24.293Z,3.50
2019-02-11T01:37:32.437Z,3.70
2019-02-11T01:42:40.678Z,3.52
2019-02-11T01:47:48.969Z,3.67
2019-02-11T01:52:57.156Z,3.78
2019-02-11T01:58:05.296Z,3.52
2019-02-11T02:03:13.624Z,3.84
2019-02-11T02:08:21.697Z,3.46
2019-02-11T02:13:29.976Z,3.84
2019-02-11T02:18:38.145Z,4.32
2019-02-11T02:23:46.283Z,4.26
2019-02-11T02:28:54.488Z,4.12
2019-02-11T02:34:02.747Z,4.22
2019-02-11T02:39:10.945Z,4.09
2019-02-11T02:44:19.185Z,4.69
2019-02-11T02:49:27.241Z,4.24
2019-02-11T02:54:35.410Z,4.68
2019-02-11T02:59:43.577Z,4.88
2019-02-11T03:04:51.670Z,4.66
2019-02-11T03:09:59.969Z,4.91
2019-02-11T03:15:08.219Z,5.34
2019-02-11T03:20:16.372Z,4.24
2019-02-11T03:25:24.529Z,4.39
2019-02-11T03:30:32.727Z,4.28
2019-02-11T03:35:40.918Z,3.67
2019-02-11T03:40:49.054Z,4.25
2019-02-11T03:45:57.288Z,3.95
2019-02-11T03:51:05.533Z,3.99
2019-02-11T03:56:07.028Z,4.13
2019-02-11T04:01:15.220Z,4.49
2019-02-11T04:06:23.749Z,4.19
2019-02-11T04:11:31.980Z,4.43
2019-02-11T04:16:40.800Z,4.21
2019-02-11T04:21:48.854Z,4.67
2019-02-11T04:26:57.500Z,4.46
2019-02-11T04:32:05.589Z,4.34
2019-02-11T04:37:13.778Z,4.78
2019-02-11T04:42:22.017Z,4.88
2019-02-11T04:47:30.120Z,5.25
2019-02-11T04:52:38.594Z,4.47
2019-02-11T04:57:46.731Z,4.75
2019-02-11T05:02:54.902Z,4.54
2019-02-11T05:08:03.081Z,5.01
2019-02-11T05:13:11.112Z,5.64
2019-02-11T05:18:19.377Z,5.18
2019-02-11T05:23:27.614Z,5.57
2019-02-11T05:28:35.975Z,5.21
2019-02-11T05:33:44.165Z,5.35
2019-02-11T05:38:52.445Z,5.02
2019-02-11T05:44:00.727Z,5.54
2019-02-11T05:49:08.984Z,5.93
2019-02-11T05:54:17.572Z,5.48
2019-02-11T05:59:26.299Z,5.62
2019-02-11T06:04:34.738Z,5.70
2019-02-11T06:09:42.964Z,5.56
2019-02-11T06:14:51.111Z,6.09
2019-02-11T06:19:59.381Z,4.94
2019-02-11T06:25:07.673Z,5.48
2019-02-11T06:30:16.174Z,6.36
2019-02-11T06:35:24.679Z,6.58
2019-02-11T06:40:32.947Z,6.65
2019-02-11T06:45:41.517Z,6.71
2019-02-11T06:50:49.753Z,7.13
2019-02-11T06:55:58.133Z,6.75
2019-02-11T07:01:06.364Z,6.76
2019-02-11T07:06:14.716Z,6.67
2019-02-11T07:11:23.431Z,6.48
2019-02-11T07:16:31.505Z,7.32
2019-02-11T07:21:39.806Z,6.78
2019-02-11T07:26:48.161Z,7.73
2019-02-11T07:31:56.233Z,6.99
2019-02-11T07:37:04.486Z,6.73
2019-02-11T07:42:12.944Z,6.87
2019-02-11T07:47:21.133Z,7.16
2019-02-11T07:52:29.497Z,6.51
2019-02-11T07:57:37.939Z,6.42
2019-02-11T08:02:46.523Z,6.65
2019-02-11T08:07:56.118Z,6.88
2019-02-11T08:13:04.625Z,5.81
2019-02-11T08:18:12.764Z,5.82
2019-02-11T08:23:20.866Z,6.61
2019-02-11T08:28:28.937Z,6.02
2019-02-11T08:33:36.990Z,6.53
2019-02-11T08:38:45.165Z,6.44
2019-02-11T08:43:53.174Z,6.59
2019-02-11T08:49:01.231Z,7.51
2019-02-11T08:54:09.291Z,6.90
2019-02-11T08:59:17.225Z,6.44
2019-02-11T09:04:25.312Z,6.33
2019-02-11T09:09:33.535Z,7.16
2019-02-11T09:14:41.673Z,6.43
2019-02-11T09:19:49.777Z,6.03
2019-02-11T09:24:57.845Z,7.21
2019-02-11T09:30:05.863Z,6.24
2019-02-11T09:35:13.846Z,6.75
2019-02-11T09:40:21.834Z,6.35
2019-02-11T09:45:29.909Z,6.27
2019-02-11T09:50:38.052Z,5.84
2019-02-11T09:55:46.153Z,6.17
2019-02-11T10:00:54.280Z,6.05
2019-02-11T10:06:02.278Z,6.67
2019-02-11T10:11:10.230Z,6.31
2019-02-11T10:16:18.189Z,6.56
2019-02-11T10:21:26.208Z,7.56
2019-02-11T10:26:34.231Z,7.11
2019-02-11T10:31:42.233Z,7.26
2019-02-11T10:36:50.185Z,6.96
2019-02-11T10:41:58.332Z,7.07
2019-02-11T10:47:06.526Z,6.52
2019-02-11T10:52:14.661Z,6.46
2019-02-11T10:57:22.857Z,7.42
2019-02-11T11:02:31.049Z,6.75
2019-02-11T11:07:39.295Z,5.98
2019-02-11T11:12:47.585Z,5.93
2019-02-11T11:17:56.030Z,5.54
2019-02-11T11:23:04.192Z,5.62
2019-02-11T11:28:12.414Z,5.33
2019-02-11T11:33:21.099Z,5.06
2019-02-11T11:38:29.301Z,5.08
2019-02-11T11:43:37.525Z,4.76
2019-02-11T11:48:45.805Z,4.95
2019-02-11T11:53:52.464Z,4.52
2019-02-11T11:59:00.926Z,4.37
2019-02-11T12:04:09.179Z,4.75
2019-02-11T12:09:17.526Z,5.28
2019-02-11T12:14:25.785Z,5.31
2019-02-11T12:19:34.212Z,5.22
2019-02-11T12:24:42.360Z,5.58
2019-02-11T12:29:50.728Z,4.77
2019-02-11T12:34:58.843Z,4.63
2019-02-11T12:40:07.280Z,4.67
2019-02-11T12:45:15.638Z,4.56
2019-02-11T12:50:23.653Z,5.41
2019-02-11T12:55:31.775Z,4.42
2019-02-11T13:00:39.968Z,4.08
2019-02-11T13:05:48.173Z,4.69
2019-02-11T13:10:56.409Z,4.57
2019-02-11T13:16:04.638Z,3.90
2019-02-11T13:21:12.798Z,3.59
2019-02-11T13:26:21.108Z,3.72
2019-02-11T13:31:29.626Z,3.58
2019-02-11T13:36:38.117Z,3.47
2019-02-11T13:41:46.325Z,3.55
2019-02-11T13:46:54.608Z,3.14
2019-02-11T13:52:02.812Z,3.45
2019-02-11T13:57:11.132Z,3.26
2019-02-11T14:02:19.585Z,3.45
2019-02-11T14:07:27.903Z,2.73
2019-02-11T14:12:36.272Z,3.13
2019-02-11T14:17:44.420Z,3.62
2019-02-11T14:22:52.764Z,3.75
2019-02-11T14:28:01.156Z,3.42
2019-02-11T14:33:09.405Z,3.88
2019-02-11T14:38:17.711Z,3.22
2019-02-11T14:43:26.163Z,3.62
2019-02-11T14:48:34.454Z,3.67
2019-02-11T14:53:42.750Z,3.77
2019-02-11T14:58:52.548Z,3.73
2019-02-11T15:04:00.514Z,4.29
2019-02-11T15:09:08.672Z,4.24
2019-02-11T15:14:16.962Z,4.85
2019-02-11T15:19:26.013Z,4.60
2019-02-11T15:24:34.042Z,4.81
2019-02-11T15:29:42.160Z,5.65
2019-02-11T15:34:50.518Z,5.29
2019-02-11T15:39:59.162Z,5.46
2019-02-11T15:45:07.457Z,4.94
2019-02-11T15:50:15.820Z,5.34
2019-02-11T15:55:24.092Z,5.24
2019-02-11T16:00:32.357Z,4.66
2019-02-11T16:05:49.228Z,4.71
2019-02-11T16:10:48.285Z,4.81
2019-02-11T16:15:56.468Z,5.05
2019-02-11T16:21:05.106Z,4.43
2019-02-11T16:26:13.669Z,4.58
2019-02-11T16:31:22.015Z,4.88
2019-02-11T16:36:30.673Z,5.39
2019-02-11T16:41:39.460Z,4.92
2019-02-11T16:46:47.777Z,4.43
2019-02-11T16:51:56.073Z,4.12
2019-02-11T16:57:04.855Z,4.54
2019-02-11T17:02:13.014Z,4.56
2019-02-11T17:07:21.247Z,4.81
2019-02-11T17:12:29.498Z,4.67
2019-02-11T17:17:37.737Z,5.01
2019-02-11T17:22:45.958Z,5.18
2019-02-11T17:27:54.579Z,4.24
2019-02-11T17:33:02.847Z,4.68
2019-02-11T17:38:11.082Z,4.53
2019-02-11T17:43:19.484Z,4.99
2019-02-11T17:48:27.693Z,5.47
2019-02-11T17:53:35.954Z,4.61
2019-02-11T17:58:44.263Z,5.81
2019-02-11T18:03:52.505Z,5.02
2019-02-11T18:09:00.782Z,5.60
2019-02-11T18:14:08.840Z,5.38
2019-02-11T18:19:17.309Z,6.02
2019-02-11T18:24:25.334Z,5.55
2019-02-11T18:29:33.460Z,5.54
2019-02-11T18:34:41.642Z,5.29
2019-02-11T18:39:49.943Z,5.76
2019-02-11T18:44:58.133Z,5.73
2019-02-11T18:50:06.413Z,6.34
2019-02-11T18:55:14.624Z,5.18
2019-02-11T19:00:23.355Z,4.85
2019-02-11T19:05:31.578Z,5.07
2019-02-11T19:10:39.861Z,5.00
2019-02-11T19:15:48.015Z,4.72
2019-02-11T19:20:56.453Z,4.24
2019-02-11T19:26:04.744Z,5.05
2019-02-11T19:31:13.482Z,5.27
2019-02-11T19:36:21.633Z,4.74
2019-02-11T19:41:30.016Z,4.49
2019-02-11T19:46:36.708Z,4.23
2019-02-11T19:51:44.933Z,4.72
2019-02-11T19:56:53.249Z,4.44
2019-02-11T20:02:01.590Z,4.81
2019-02-11T20:07:09.978Z,4.42
2019-02-11T20:12:18.699Z,5.00
2019-02-11T20:17:27.081Z,4.56
2019-02-11T20:22:35.405Z,4.56
2019-02-11T20:27:43.545Z,5.27
2019-02-11T20:32:51.810Z,4.80
2019-02-11T20:38:00.093Z,4.98
2019-02-11T20:43:08.269Z,4.62
2019-02-11T20:48:16.432Z,4.57
2019-02-11T20:53:24.668Z,4.51
2019-02-11T20:58:32.897Z,4.65
2019-02-11T21:03:40.857Z,4.35
2019-02-11T21:08:48.802Z,4.16
2019-02-11T21:13:56.835Z,4.61
2019-02-11T21:19:04.882Z,4.29
2019-02-11T21:24:13.676Z,3.83
2019-02-11T21:29:22.198Z,4.41
2019-02-11T21:34:31.349Z,4.46
2019-02-11T21:39:39.954Z,5.93
2019-02-11T21:44:49.194Z,4.46
2019-02-11T21:49:57.392Z,4.42
2019-02-11T21:55:05.516Z,4.42
2019-02-11T22:00:13.668Z,4.34
2019-02-11T22:05:21.802Z,4.54
2019-02-11T22:10:29.978Z,5.91
2019-02-11T22:15:38.131Z,4.25
2019-02-11T22:20:46.081Z,4.22
2019-02-11T22:25:54.040Z,3.88
2019-02-11T22:31:02.057Z,4.29
2019-02-11T22:36:10.168Z,5.19
2019-02-11T22:41:18.223Z,5.32
2019-02-11T22:46:26.236Z,4.34
2019-02-11T22:51:36.869Z,4.18
2019-02-11T22:56:34.925Z,3.86
2019-02-11T23:01:43.777Z,3.81
2019-02-11T23:06:51.877Z,4.18
2019-02-11T23:12:00.010Z,3.59
2019-02-11T23:17:08.405Z,3.72
2019-02-11T23:22:16.826Z,4.09
2019-02-11T23:27:25.144Z,3.44
2019-02-11T23:32:33.517Z,3.82
2019-02-11T23:37:41.756Z,5.82
2019-02-11T23:42:49.917Z,4.04
2019-02-11T23:47:58.237Z,4.21
2019-02-11T23:53:06.710Z,4.18
2019-02-11T23:58:14.842Z,4.32
